Time;durP1;ratioP1;P1;durP2;ratioP2;P2;SDS_P1;SDS_P2;PMS_P1;PMS_P2;Temp;Humidity;BMP_temperature;BMP_pressure;BME280_temperature;BME280_humidity;BME280_pressure;Samples;Min_cycle;Max_cycle;Signal;HPM_P1;HPM_P2
2022/03/02 00:02:21;;;;;;;41.53;23.67;;;5.60;99.90;;;;;;4985439;28;20052;-87
2022/03/02 00:04:47;;;;;;;44.33;24.87;;;5.60;99.90;;;;;;4998364;28;20044;-87
2022/03/02 00:07:13;;;;;;;44.83;26.57;;;5.60;99.90;;;;;;5014735;28;20489;-87
2022/03/02 00:09:39;;;;;;;45.10;24.70;;;5.50;99.90;;;;;;4985474;28;20045;-86
2022/03/02 00:12:05;;;;;;;46.30;24.57;;;5.50;99.90;;;;;;5001584;28;20037;-87
2022/03/02 00:14:30;;;;;;;42.93;23.80;;;5.50;99.90;;;;;;5034380;28;20044;-87
2022/03/02 00:16:56;;;;;;;49.27;27.10;;;5.50;99.90;;;;;;5017338;28;20037;-88
2022/03/02 00:19:22;;;;;;;42.53;25.27;;;5.40;99.90;;;;;;4981810;28;20057;-87
2022/03/02 00:21:48;;;;;;;43.33;24.93;;;5.40;99.90;;;;;;4982267;28;20038;-87
2022/03/02 00:24:14;;;;;;;47.40;25.00;;;5.40;99.90;;;;;;5033027;28;20074;-87
2022/03/02 00:26:40;;;;;;;43.93;25.20;;;5.40;99.90;;;;;;5017221;28;20120;-87
2022/03/02 00:29:05;;;;;;;44.10;25.00;;;5.40;99.90;;;;;;5034448;28;20036;-87
2022/03/02 00:31:32;;;;;;;44.37;25.03;;;5.40;99.90;;;;;;5001218;28;20037;-87
2022/03/02 00:33:57;;;;;;;45.77;25.67;;;5.30;99.90;;;;;;5033920;28;20045;-88
2022/03/02 00:36:23;;;;;;;45.83;25.07;;;5.30;99.90;;;;;;5001331;28;20132;-87
2022/03/02 00:38:49;;;;;;;46.47;25.57;;;5.30;99.90;;;;;;5017442;28;20045;-87
2022/03/02 00:41:15;;;;;;;43.83;24.23;;;5.30;99.90;;;;;;5001314;28;20045;-87
2022/03/02 00:43:41;;;;;;;46.53;25.83;;;5.30;99.90;;;;;;5017228;28;20052;-88
2022/03/02 00:46:07;;;;;;;45.57;25.57;;;5.30;99.90;;;;;;4984534;28;20072;-88
2022/03/02 00:48:33;;;;;;;47.80;24.73;;;5.20;99.90;;;;;;5017046;28;20084;-87
2022/03/02 00:50:59;;;;;;;45.77;27.13;;;5.30;99.90;;;;;;5016286;28;20838;-88
2022/03/02 00:53:25;;;;;;;47.87;26.37;;;5.30;99.90;;;;;;4999826;28;20127;-87
2022/03/02 00:55:50;;;;;;;47.33;26.73;;;5.30;99.90;;;;;;5015471;28;20132;-79
2022/03/02 00:58:16;;;;;;;45.37;25.47;;;5.30;99.90;;;;;;5014836;28;20511;-79
2022/03/02 01:00:42;;;;;;;45.83;25.20;;;5.30;99.90;;;;;;5014582;28;20509;-79
2022/03/02 01:03:08;;;;;;;45.53;26.30;;;5.30;99.90;;;;;;4995604;28;20034;-79
2022/03/02 01:05:34;;;;;;;50.13;26.17;;;5.30;99.90;;;;;;5019838;28;20041;-79
2022/03/02 01:07:59;;;;;;;45.07;25.00;;;5.20;99.90;;;;;;5031340;28;20452;-79
2022/03/02 01:10:25;;;;;;;44.80;25.30;;;5.20;99.90;;;;;;4999424;28;20068;-79
2022/03/02 01:12:51;;;;;;;49.90;25.77;;;5.20;99.90;;;;;;5015196;28;20107;-78
2022/03/02 01:15:16;;;;;;;43.70;24.70;;;5.20;99.90;;;;;;4994287;28;20117;-79
2022/03/02 01:17:43;;;;;;;45.20;25.03;;;5.20;99.90;;;;;;5001642;28;20061;-79
2022/03/02 01:20:11;;;;;;;45.63;25.33;;;5.10;99.90;;;;;;5031314;28;20049;-79
2022/03/02 01:22:38;;;;;;;46.73;24.57;;;5.20;99.90;;;;;;5030804;28;20036;-79
2022/03/02 01:25:05;;;;;;;44.60;26.17;;;5.20;99.90;;;;;;4996886;28;20048;-79
2022/03/02 01:27:31;;;;;;;45.23;26.03;;;5.20;99.90;;;;;;5016670;28;20041;-79
2022/03/02 01:29:57;;;;;;;43.50;24.13;;;5.20;99.90;;;;;;5018656;28;20060;-80
2022/03/02 01:32:23;;;;;;;45.33;26.10;;;5.20;99.90;;;;;;5034966;28;20039;-79
2022/03/02 01:34:49;;;;;;;50.10;26.27;;;5.10;99.90;;;;;;5017726;28;20036;-79
2022/03/02 01:37:16;;;;;;;47.03;25.60;;;5.10;99.90;;;;;;5017814;28;20041;-79
2022/03/02 01:39:42;;;;;;;45.27;24.47;;;5.10;99.90;;;;;;5017787;28;20068;-79
2022/03/02 01:42:08;;;;;;;45.57;25.77;;;5.10;99.90;;;;;;5017885;28;20124;-79
2022/03/02 01:44:35;;;;;;;49.00;26.43;;;5.10;99.90;;;;;;5002220;28;20437;-79
2022/03/02 01:47:00;;;;;;;45.17;25.73;;;5.20;99.90;;;;;;5002080;28;20072;-79
2022/03/02 01:49:26;;;;;;;49.67;26.63;;;5.20;99.90;;;;;;5040333;28;20071;-79
2022/03/02 01:51:52;;;;;;;47.20;25.67;;;5.10;99.90;;;;;;5018183;28;20048;-79
2022/03/02 01:54:18;;;;;;;45.37;25.23;;;5.10;99.90;;;;;;5034765;28;20501;-79
2022/03/02 01:56:43;;;;;;;46.80;26.53;;;5.10;99.90;;;;;;5031711;28;20424;-79
2022/03/02 01:59:10;;;;;;;44.33;25.27;;;5.00;99.90;;;;;;5018565;28;20523;-79
2022/03/02 02:01:36;;;;;;;47.67;25.27;;;5.10;99.90;;;;;;5002500;28;20056;-79
2022/03/02 02:04:03;;;;;;;46.13;25.60;;;5.10;99.90;;;;;;5018594;28;20049;-80
2022/03/02 02:06:29;;;;;;;50.03;27.77;;;5.00;99.90;;;;;;5034727;28;20069;-79
2022/03/02 02:08:55;;;;;;;46.93;25.77;;;5.00;99.90;;;;;;5035045;28;20130;-79
2022/03/02 02:11:20;;;;;;;46.70;26.03;;;5.00;99.90;;;;;;5034653;28;20040;-79
2022/03/02 02:13:46;;;;;;;47.67;27.33;;;4.90;99.90;;;;;;4986071;28;20041;-79
2022/03/02 02:16:13;;;;;;;49.17;26.50;;;4.90;99.90;;;;;;5018006;28;20045;-79
2022/03/02 02:18:39;;;;;;;47.77;27.17;;;4.90;99.90;;;;;;5017700;28;20053;-79
2022/03/02 02:21:07;;;;;;;54.43;29.40;;;4.80;99.90;;;;;;5034567;28;20080;-79
2022/03/02 02:23:34;;;;;;;51.00;26.37;;;4.80;99.90;;;;;;5017925;28;20052;-79
2022/03/02 02:26:00;;;;;;;50.53;27.53;;;4.80;99.90;;;;;;5034033;28;20041;-79
2022/03/02 02:28:28;;;;;;;48.40;26.93;;;4.80;99.90;;;;;;5034178;28;20507;-79
2022/03/02 02:30:55;;;;;;;52.20;28.97;;;4.70;99.90;;;;;;5034610;28;20049;-78
2022/03/02 02:33:22;;;;;;;56.83;28.90;;;4.70;99.90;;;;;;5017483;28;20102;-79
2022/03/02 02:35:49;;;;;;;53.40;29.13;;;4.70;99.90;;;;;;5033980;28;20041;-79
2022/03/02 02:38:16;;;;;;;56.23;30.00;;;4.70;99.90;;;;;;5017425;28;20049;-79
2022/03/02 02:40:42;;;;;;;54.10;28.57;;;4.70;99.90;;;;;;5033860;28;20083;-80
2022/03/02 02:43:08;;;;;;;53.97;28.53;;;4.70;99.90;;;;;;5034546;28;20073;-80
2022/03/02 02:45:34;;;;;;;57.67;29.63;;;4.60;99.90;;;;;;5033474;28;20583;-79
2022/03/02 02:47:59;;;;;;;59.67;29.27;;;4.60;99.90;;;;;;5017463;28;20049;-79
2022/03/02 02:50:28;;;;;;;58.53;30.27;;;4.60;99.90;;;;;;5002053;28;20041;-79
2022/03/02 02:52:56;;;;;;;55.83;29.90;;;4.60;99.90;;;;;;5017465;28;20045;-79
2022/03/02 02:55:25;;;;;;;53.13;28.47;;;4.60;99.90;;;;;;5008360;28;20098;-79
2022/03/02 02:57:52;;;;;;;58.53;31.37;;;4.60;99.90;;;;;;5033962;28;20041;-79
2022/03/02 03:00:20;;;;;;;57.17;29.80;;;4.60;99.90;;;;;;5007476;28;20120;-79
2022/03/02 03:02:48;;;;;;;59.47;29.60;;;4.70;99.90;;;;;;5016913;28;20455;-79
2022/03/02 03:05:16;;;;;;;51.73;29.90;;;4.60;99.90;;;;;;5013703;28;20096;-80
2022/03/02 03:07:42;;;;;;;55.80;29.00;;;4.60;99.90;;;;;;5010473;28;20055;-79
2022/03/02 03:10:10;;;;;;;54.33;29.70;;;4.60;99.90;;;;;;5017715;28;20405;-79
2022/03/02 03:12:37;;;;;;;57.40;30.50;;;4.60;99.90;;;;;;5000479;28;20565;-79
2022/03/02 03:15:05;;;;;;;54.80;29.27;;;4.60;99.90;;;;;;5016504;28;20047;-79
2022/03/02 03:17:31;;;;;;;50.57;28.93;;;4.60;99.90;;;;;;5016692;28;20067;-79
2022/03/02 03:19:57;;;;;;;55.03;29.87;;;4.60;99.90;;;;;;5034298;28;20052;-86
2022/03/02 03:22:23;;;;;;;56.73;29.50;;;4.60;99.90;;;;;;5018532;28;20458;-87
2022/03/02 03:24:49;;;;;;;56.37;30.27;;;4.60;99.90;;;;;;5017024;28;20082;-87
2022/03/02 03:27:14;;;;;;;53.13;28.50;;;4.60;99.90;;;;;;5000855;28;20040;-87
2022/03/02 03:29:40;;;;;;;50.63;28.47;;;4.60;99.90;;;;;;5001521;28;20037;-87
2022/03/02 03:32:07;;;;;;;55.97;28.93;;;4.60;99.90;;;;;;5018498;28;20491;-87
2022/03/02 03:34:33;;;;;;;57.67;30.33;;;4.60;99.90;;;;;;5025211;28;20063;-88
2022/03/02 03:36:58;;;;;;;59.60;31.80;;;4.60;99.90;;;;;;5018545;28;20033;-88
2022/03/02 03:39:24;;;;;;;53.03;28.83;;;4.60;99.90;;;;;;5035249;28;20047;-88
2022/03/02 03:41:50;;;;;;;61.03;31.30;;;4.60;99.90;;;;;;4986215;28;20544;-88
2022/03/02 03:44:16;;;;;;;57.83;30.57;;;4.60;99.90;;;;;;4985151;28;20041;-88
2022/03/02 03:46:42;;;;;;;52.20;29.17;;;4.50;99.90;;;;;;5001899;28;20091;-88
2022/03/02 03:49:07;;;;;;;50.20;27.80;;;4.50;99.90;;;;;;5018892;28;20072;-88
2022/03/02 03:51:34;;;;;;;56.30;30.03;;;4.50;99.90;;;;;;4983414;28;20516;-88
2022/03/02 03:54:00;;;;;;;53.87;30.13;;;4.50;99.90;;;;;;5014640;28;20025;-88
2022/03/02 03:56:27;;;;;;;57.60;29.97;;;4.50;99.90;;;;;;5017352;28;20564;-87
2022/03/02 03:58:54;;;;;;;58.23;29.70;;;4.50;99.90;;;;;;5018088;28;20443;-88
2022/03/02 04:01:21;;;;;;;53.53;28.50;;;4.40;99.90;;;;;;5001890;28;20056;-87
2022/03/02 04:03:47;;;;;;;56.83;28.57;;;4.40;99.90;;;;;;5007768;28;20038;-87
2022/03/02 04:06:13;;;;;;;57.10;29.47;;;4.40;99.90;;;;;;4997998;28;20048;-88
2022/03/02 04:08:39;;;;;;;56.30;29.63;;;4.40;99.90;;;;;;4998430;28;20041;-87
2022/03/02 04:11:05;;;;;;;52.70;28.03;;;4.40;99.90;;;;;;5001230;28;20135;-87
2022/03/02 04:13:30;;;;;;;56.17;29.13;;;4.50;99.90;;;;;;5005525;28;20041;-87
2022/03/02 04:15:57;;;;;;;56.57;29.97;;;4.50;99.90;;;;;;5000659;28;20049;-87
2022/03/02 04:18:23;;;;;;;52.17;29.47;;;4.40;99.90;;;;;;5001067;28;20048;-87
2022/03/02 04:20:49;;;;;;;57.70;30.20;;;4.40;99.90;;;;;;5017265;28;20052;-87
2022/03/02 04:23:15;;;;;;;56.40;30.57;;;4.50;99.90;;;;;;5017588;28;20047;-87
2022/03/02 04:25:41;;;;;;;54.77;28.90;;;4.40;99.90;;;;;;5034046;28;20040;-87
2022/03/02 04:28:06;;;;;;;53.07;28.27;;;4.40;99.90;;;;;;5017625;28;20484;-87
2022/03/02 04:30:32;;;;;;;54.63;28.43;;;4.50;99.90;;;;;;5033576;28;20044;-87
2022/03/02 04:32:59;;;;;;;59.20;30.80;;;4.40;99.90;;;;;;5013132;28;20042;-87
2022/03/02 04:35:25;;;;;;;57.53;30.30;;;4.40;99.90;;;;;;5009570;28;20059;-88
2022/03/02 04:37:51;;;;;;;56.53;29.23;;;4.30;99.90;;;;;;5017973;28;20049;-88
2022/03/02 04:40:17;;;;;;;55.30;28.93;;;4.40;99.90;;;;;;4985354;28;20041;-87
2022/03/02 04:42:43;;;;;;;55.33;29.03;;;4.40;99.90;;;;;;4999378;28;20048;-79
2022/03/02 04:45:10;;;;;;;55.73;29.33;;;4.30;99.90;;;;;;5032078;28;20124;-79
2022/03/02 04:47:36;;;;;;;61.73;29.43;;;4.30;99.90;;;;;;5031280;28;20072;-79
2022/03/02 04:50:04;;;;;;;57.53;29.73;;;4.30;99.90;;;;;;5015363;28;20036;-79
2022/03/02 04:52:29;;;;;;;55.93;29.87;;;4.20;99.90;;;;;;5006056;28;20041;-79
2022/03/02 04:55:07;;;;;;;59.70;30.13;;;4.20;99.90;;;;;;5014811;28;20048;-79
2022/03/02 04:57:46;;;;;;;55.53;29.50;;;4.10;99.90;;;;;;5016262;28;20049;-79
2022/03/02 05:00:17;;;;;;;60.20;30.33;;;4.10;99.90;;;;;;5015180;28;20048;-78
2022/03/02 05:02:43;;;;;;;58.25;29.58;;;4.00;99.90;;;;;;5024623;28;20045;-79
2022/03/02 05:05:14;;;;;;;59.93;31.90;;;3.90;99.90;;;;;;5019013;28;20033;-79
2022/03/02 05:07:41;;;;;;;54.53;30.43;;;3.90;99.90;;;;;;5018922;28;20099;-79
2022/03/02 05:10:08;;;;;;;59.33;30.17;;;3.80;99.90;;;;;;5017661;28;20069;-79
2022/03/02 05:12:34;;;;;;;59.53;32.10;;;3.70;99.90;;;;;;5034720;28;20041;-79
2022/03/02 05:15:01;;;;;;;54.97;30.47;;;3.70;99.90;;;;;;5002665;28;20037;-79
2022/03/02 05:17:28;;;;;;;55.90;30.23;;;3.60;99.90;;;;;;5018592;28;20086;-86
2022/03/02 05:19:54;;;;;;;59.20;32.40;;;3.50;99.90;;;;;;5029831;28;20056;-87
2022/03/02 05:22:20;;;;;;;62.10;32.30;;;3.50;99.90;;;;;;5008522;28;20512;-79
2022/03/02 05:24:45;;;;;;;60.73;31.57;;;3.40;99.90;;;;;;5012449;28;20122;-79
2022/03/02 05:27:11;;;;;;;60.23;31.50;;;3.40;99.90;;;;;;5008392;28;20426;-79
2022/03/02 05:29:37;;;;;;;61.80;31.27;;;3.30;99.90;;;;;;5026282;28;20048;-79
2022/03/02 05:32:04;;;;;;;58.37;30.70;;;3.30;99.90;;;;;;5018540;28;20555;-79
2022/03/02 05:34:29;;;;;;;64.00;31.97;;;3.30;99.90;;;;;;4999913;28;20463;-79
2022/03/02 05:36:55;;;;;;;61.37;31.50;;;3.20;99.90;;;;;;5004212;28;20046;-79
2022/03/02 05:39:23;;;;;;;57.83;30.20;;;3.20;99.90;;;;;;4996490;28;20045;-79
2022/03/02 05:41:49;;;;;;;64.13;32.13;;;3.20;99.90;;;;;;5015377;28;20048;-79
2022/03/02 05:44:15;;;;;;;53.83;29.27;;;3.20;99.90;;;;;;5008039;28;20106;-78
2022/03/02 05:46:41;;;;;;;60.87;32.20;;;3.10;99.90;;;;;;4998761;28;20125;-79
2022/03/02 05:49:10;;;;;;;55.97;29.20;;;3.10;99.90;;;;;;5028458;28;20033;-79
2022/03/02 05:51:37;;;;;;;56.97;32.27;;;3.10;99.90;;;;;;5007535;28;20511;-78
2022/03/02 05:54:04;;;;;;;51.57;29.27;;;3.10;99.90;;;;;;5021199;28;20071;-79
2022/03/02 05:56:31;;;;;;;59.73;31.40;;;3.10;99.90;;;;;;5020234;28;20191;-79
2022/03/02 05:58:58;;;;;;;61.27;30.70;;;3.10;99.90;;;;;;4996235;28;20043;-79
2022/03/02 06:01:24;;;;;;;58.67;29.97;;;3.10;99.90;;;;;;5010144;28;20108;-79
2022/03/02 06:03:50;;;;;;;55.80;29.60;;;3.00;99.90;;;;;;4998418;28;20048;-87
2022/03/02 06:06:16;;;;;;;60.13;30.67;;;3.00;99.90;;;;;;4999908;28;20075;-87
2022/03/02 06:08:42;;;;;;;59.50;31.50;;;3.00;99.90;;;;;;5013681;28;20109;-87
2022/03/02 06:11:09;;;;;;;58.63;33.03;;;3.00;99.90;;;;;;5029189;28;20043;-88
2022/03/02 06:13:35;;;;;;;61.73;31.97;;;2.90;99.90;;;;;;5009932;28;20049;-87
2022/03/02 06:16:02;;;;;;;57.50;31.17;;;2.90;99.90;;;;;;5035712;28;20049;-87
2022/03/02 06:18:29;;;;;;;59.63;31.13;;;2.90;99.90;;;;;;4993761;28;20133;-87
2022/03/02 06:21:00;;;;;;;63.13;31.17;;;2.90;99.90;;;;;;4996099;28;20374;-87
2022/03/02 06:23:30;;;;;;;57.97;30.27;;;2.90;99.90;;;;;;5013239;28;20305;-87
2022/03/02 06:25:56;;;;;;;58.03;31.60;;;2.80;99.90;;;;;;4982340;28;20850;-87
2022/03/02 06:28:23;;;;;;;62.23;32.27;;;2.80;99.90;;;;;;4982190;28;20042;-87
2022/03/02 06:30:49;;;;;;;61.07;32.27;;;2.70;99.90;;;;;;5004360;28;20287;-85
2022/03/02 06:33:18;;;;;;;57.93;30.40;;;2.70;99.90;;;;;;5037178;28;20037;-86
2022/03/02 06:35:53;;;;;;;63.13;32.23;;;2.70;99.90;;;;;;5037689;28;20038;-87
2022/03/02 06:38:20;;;;;;;61.30;30.57;;;2.70;99.90;;;;;;5033415;28;20042;-86
2022/03/02 06:41:24;;;;;;;58.83;31.37;;;2.70;99.90;;;;;;5033754;28;20044;-86
2022/03/02 06:44:04;;;;;;;66.97;32.37;;;2.60;99.90;;;;;;4979529;28;20304;-86
2022/03/02 06:46:45;;;;;;;58.97;30.77;;;2.50;99.90;;;;;;5033209;28;20476;-86
2022/03/02 06:49:30;;;;;;;62.17;32.05;;;2.60;99.90;;;;;;5018174;28;20284;-85
2022/03/02 06:52:02;;;;;;;60.13;31.73;;;2.60;99.90;;;;;;5019234;28;20053;-85
2022/03/02 06:54:30;;;;;;;61.35;31.17;;;2.50;99.90;;;;;;5016978;28;20329;-86
2022/03/02 06:56:58;;;;;;;64.23;31.93;;;2.60;99.90;;;;;;5000391;28;20045;-85
2022/03/02 06:59:38;;;;;;;59.53;30.73;;;2.60;99.90;;;;;;5016439;28;20280;-86
2022/03/02 07:02:06;;;;;;;64.73;33.63;;;2.50;99.90;;;;;;5019417;28;20433;-86
2022/03/02 07:04:42;;;;;;;63.87;33.80;;;2.50;99.90;;;;;;5035210;28;20311;-86
2022/03/02 07:07:09;;;;;;;60.27;31.60;;;2.50;99.90;;;;;;5019443;28;20164;-86
2022/03/02 07:09:35;;;;;;;62.47;32.80;;;2.40;99.90;;;;;;5008171;28;20895;-85
2022/03/02 07:12:03;;;;;;;64.10;31.50;;;2.40;99.90;;;;;;5000408;28;20276;-86
2022/03/02 07:14:30;;;;;;;63.90;32.57;;;2.40;99.90;;;;;;5016870;28;20276;-86
2022/03/02 07:16:58;;;;;;;63.87;32.33;;;2.40;99.90;;;;;;4996217;28;20284;-86
2022/03/02 07:19:25;;;;;;;56.57;30.00;;;2.50;99.90;;;;;;5035583;28;20295;-86
2022/03/02 07:21:52;;;;;;;58.23;30.87;;;2.50;99.90;;;;;;5035993;28;20341;-86
2022/03/02 07:24:22;;;;;;;59.67;29.87;;;2.40;99.90;;;;;;5018441;28;20318;-86
2022/03/02 07:26:56;;;;;;;63.23;30.23;;;2.60;99.90;;;;;;5019570;28;20287;-86
2022/03/02 07:29:26;;;;;;;57.20;29.67;;;2.60;99.90;;;;;;5018777;28;20968;-85
2022/03/02 07:31:56;;;;;;;59.53;30.67;;;2.70;99.90;;;;;;5030407;28;20287;-86
2022/03/02 07:34:25;;;;;;;56.30;28.70;;;2.80;99.90;;;;;;5007228;28;20293;-85
2022/03/02 07:36:51;;;;;;;60.67;30.07;;;2.80;99.90;;;;;;5035011;28;20284;-85
2022/03/02 07:39:17;;;;;;;56.77;27.80;;;2.90;99.90;;;;;;5018765;28;20048;-85
2022/03/02 07:41:43;;;;;;;53.50;28.53;;;3.00;99.90;;;;;;5002200;28;20076;-88
2022/03/02 07:44:10;;;;;;;53.07;28.40;;;3.00;99.90;;;;;;5017695;28;20862;-86
2022/03/02 07:46:36;;;;;;;53.33;28.07;;;3.10;99.90;;;;;;5018757;28;20283;-86
2022/03/02 07:49:02;;;;;;;58.50;29.63;;;3.20;99.90;;;;;;5034614;28;20290;-86
2022/03/02 07:51:28;;;;;;;49.47;26.73;;;3.20;99.90;;;;;;5033940;28;20333;-86
2022/03/02 07:54:03;;;;;;;52.63;26.43;;;3.30;99.90;;;;;;5018086;28;20397;-86
2022/03/02 07:56:30;;;;;;;53.50;27.27;;;3.30;99.90;;;;;;5018019;28;20290;-86
2022/03/02 07:59:02;;;;;;;48.20;26.23;;;3.40;99.90;;;;;;5018315;28;20279;-86
2022/03/02 08:01:28;;;;;;;52.07;27.57;;;3.40;99.90;;;;;;5018376;28;20456;-86
2022/03/02 08:03:57;;;;;;;50.07;26.47;;;3.50;99.90;;;;;;5017847;28;20052;-86
2022/03/02 08:06:23;;;;;;;49.00;26.37;;;3.60;99.90;;;;;;5034012;28;20388;-86
2022/03/02 08:08:51;;;;;;;49.13;25.90;;;3.70;99.90;;;;;;5035195;28;20374;-86
2022/03/02 08:11:17;;;;;;;52.00;26.70;;;3.70;99.90;;;;;;5018122;28;20041;-86
2022/03/02 08:13:43;;;;;;;49.70;25.23;;;3.90;99.90;;;;;;5017817;28;20045;-87
2022/03/02 08:16:13;;;;;;;48.57;26.10;;;3.90;99.90;;;;;;5018468;28;20049;-86
2022/03/02 08:18:38;;;;;;;47.07;25.37;;;4.00;99.90;;;;;;5018218;28;20061;-87
2022/03/02 08:21:04;;;;;;;49.53;25.93;;;4.00;99.90;;;;;;5000158;28;20055;-79
2022/03/02 08:23:38;;;;;;;50.87;25.60;;;4.10;99.90;;;;;;4998619;28;20037;-79
2022/03/02 08:26:05;;;;;;;44.20;24.87;;;4.10;99.90;;;;;;4995134;28;20121;-79
2022/03/02 08:28:33;;;;;;;48.40;24.43;;;4.20;99.90;;;;;;5015423;28;20040;-79
2022/03/02 08:30:59;;;;;;;47.37;24.73;;;4.30;99.90;;;;;;5038319;28;20105;-79
2022/03/02 08:33:29;;;;;;;44.33;23.27;;;4.40;99.90;;;;;;5020992;28;20701;-79
2022/03/02 08:35:56;;;;;;;48.00;26.30;;;4.50;99.90;;;;;;5031633;28;20045;-85
2022/03/02 08:38:25;;;;;;;46.27;24.67;;;4.50;99.90;;;;;;5022107;28;20067;-86
2022/03/02 08:40:52;;;;;;;44.83;23.50;;;4.60;99.90;;;;;;5022005;28;20037;-87
2022/03/02 08:43:18;;;;;;;46.63;24.47;;;4.70;99.90;;;;;;5021981;28;20496;-86
2022/03/02 08:45:49;;;;;;;47.87;24.60;;;4.80;99.90;;;;;;4999146;28;20037;-87
2022/03/02 08:48:16;;;;;;;47.35;24.58;;;4.90;99.90;;;;;;5037092;28;20727;-79
2022/03/02 08:50:43;;;;;;;45.13;23.97;;;4.90;99.90;;;;;;4992359;28;20049;-79
2022/03/02 08:53:14;;;;;;;47.33;23.57;;;5.00;99.90;;;;;;5015894;28;20098;-79
2022/03/02 08:55:40;;;;;;;41.45;23.52;;;5.00;99.90;;;;;;5008093;28;20576;-79
2022/03/02 08:58:06;;;;;;;43.47;23.70;;;5.10;99.90;;;;;;5032460;28;20041;-79
2022/03/02 09:00:32;;;;;;;38.07;22.20;;;5.10;99.90;;;;;;5001832;28;20091;-79
2022/03/02 09:03:01;;;;;;;43.20;23.10;;;5.20;99.90;;;;;;5013507;28;20040;-79
2022/03/02 09:05:28;;;;;;;44.37;22.93;;;5.30;99.90;;;;;;4997924;28;20029;-79
2022/03/02 09:07:54;;;;;;;38.53;21.20;;;5.50;99.90;;;;;;5012758;28;20044;-79
2022/03/02 09:10:20;;;;;;;39.67;21.60;;;5.50;99.90;;;;;;5020257;28;20045;-79
2022/03/02 09:12:46;;;;;;;39.90;22.00;;;5.50;99.90;;;;;;5024908;28;20041;-78
2022/03/02 09:15:12;;;;;;;40.87;22.93;;;5.60;99.90;;;;;;5032455;28;20433;-78
2022/03/02 09:17:38;;;;;;;41.67;21.73;;;5.70;99.90;;;;;;5018427;28;20400;-80
2022/03/02 09:20:07;;;;;;;37.30;20.93;;;5.80;99.90;;;;;;5018645;28;20077;-79
2022/03/02 09:22:36;;;;;;;36.43;21.40;;;5.90;99.90;;;;;;5018580;28;20102;-79
2022/03/02 09:25:03;;;;;;;41.03;21.23;;;5.90;99.90;;;;;;5016556;28;20071;-79
2022/03/02 09:27:30;;;;;;;39.63;21.40;;;6.00;99.90;;;;;;5018183;28;20033;-79
2022/03/02 09:29:58;;;;;;;36.37;20.20;;;6.10;99.90;;;;;;5024722;28;20033;-79
2022/03/02 09:32:25;;;;;;;41.03;20.63;;;6.20;99.90;;;;;;5024639;28;20041;-79
2022/03/02 09:34:55;;;;;;;34.50;20.47;;;6.20;99.90;;;;;;4996878;28;20228;-79
2022/03/02 09:37:22;;;;;;;38.27;20.07;;;6.30;99.90;;;;;;5027780;28;20049;-79
2022/03/02 09:39:49;;;;;;;36.53;20.10;;;6.30;99.90;;;;;;5025626;28;20029;-79
2022/03/02 09:42:23;;;;;;;38.07;19.93;;;6.40;99.90;;;;;;5018648;28;20040;-79
2022/03/02 09:44:58;;;;;;;35.53;20.27;;;6.40;99.90;;;;;;5014064;28;20499;-79
2022/03/02 09:47:29;;;;;;;37.20;18.83;;;6.50;99.90;;;;;;5005234;28;20504;-79
2022/03/02 09:49:56;;;;;;;35.28;20.67;;;6.60;99.90;;;;;;5023822;28;20700;-79
2022/03/02 09:52:23;;;;;;;38.77;20.50;;;6.70;99.90;;;;;;5016077;28;20037;-79
2022/03/02 09:54:54;;;;;;;36.30;21.30;;;6.80;99.90;;;;;;5009968;28;20033;-80
2022/03/02 09:57:22;;;;;;;35.65;18.92;;;6.80;99.90;;;;;;5004150;28;20122;-79
2022/03/02 10:00:06;;;;;;;38.20;20.67;;;6.90;99.90;;;;;;5034545;28;20037;-79
2022/03/02 10:02:38;;;;;;;35.47;19.27;;;6.90;99.90;;;;;;5004708;28;20037;-80
2022/03/02 10:05:08;;;;;;;34.40;19.88;;;7.00;99.90;;;;;;5031063;28;20037;-79
2022/03/02 10:07:36;;;;;;;37.27;21.00;;;7.10;99.90;;;;;;5034419;28;20044;-79
2022/03/02 10:10:15;;;;;;;34.17;20.40;;;7.10;99.90;;;;;;5017538;28;20037;-80
2022/03/02 10:12:41;;;;;;;37.17;20.33;;;7.20;99.90;;;;;;5008172;28;20052;-79
2022/03/02 10:15:11;;;;;;;33.13;19.50;;;7.30;99.90;;;;;;5016523;28;20052;-79
2022/03/02 10:17:39;;;;;;;35.77;19.73;;;7.40;99.90;;;;;;5033773;28;20041;-80
2022/03/02 10:20:07;;;;;;;38.50;20.43;;;7.40;99.90;;;;;;5017362;28;20060;-79
2022/03/02 10:22:39;;;;;;;34.43;19.73;;;7.50;99.90;;;;;;5017653;28;20041;-79
2022/03/02 10:25:16;;;;;;;34.30;19.40;;;7.60;99.90;;;;;;5012781;28;20485;-79
2022/03/02 10:28:04;;;;;;;34.03;18.80;;;7.60;99.90;;;;;;5017578;28;20045;-80
2022/03/02 10:30:41;;;;;;;35.43;20.70;;;7.60;99.90;;;;;;5017306;28;20051;-79
2022/03/02 10:33:21;;;;;;;33.60;20.30;;;7.70;99.90;;;;;;5009815;28;20041;-80
2022/03/02 10:35:55;;;;;;;34.43;20.67;;;7.70;99.90;;;;;;5015171;28;20048;-79
2022/03/02 10:38:35;;;;;;;36.47;20.00;;;7.70;99.90;;;;;;5032770;28;20072;-79
2022/03/02 10:41:02;;;;;;;37.50;20.47;;;7.80;99.90;;;;;;5016982;28;20114;-79
2022/03/02 10:43:54;;;;;;;34.17;19.60;;;7.80;99.90;;;;;;5016690;28;20478;-79
2022/03/02 10:46:22;;;;;;;31.55;18.58;;;7.90;99.90;;;;;;4993279;28;20440;-79
2022/03/02 10:49:13;;;;;;;33.67;19.53;;;7.80;99.90;;;;;;5017105;28;20049;-79
2022/03/02 10:51:41;;;;;;;33.60;19.53;;;7.90;99.90;;;;;;5033736;28;20408;-79
2022/03/02 10:54:07;;;;;;;40.33;21.37;;;7.90;99.90;;;;;;5001158;28;20044;-79
2022/03/02 10:56:40;;;;;;;34.60;20.13;;;8.00;99.90;;;;;;5003484;28;20083;-79
2022/03/02 10:59:16;;;;;;;33.87;19.67;;;8.00;99.90;;;;;;5000857;28;20103;-80
2022/03/02 11:01:44;;;;;;;34.70;20.47;;;8.10;99.90;;;;;;5016525;28;20111;-79
2022/03/02 11:04:10;;;;;;;35.20;20.63;;;8.10;99.90;;;;;;5033602;28;20045;-79
2022/03/02 11:06:38;;;;;;;36.97;20.33;;;8.30;99.90;;;;;;5015020;28;20044;-80
2022/03/02 11:09:05;;;;;;;38.70;21.83;;;8.20;99.90;;;;;;5001142;28;20128;-78
2022/03/02 11:11:37;;;;;;;35.23;19.93;;;8.20;99.90;;;;;;5016523;28;20051;-79
2022/03/02 11:14:09;;;;;;;37.43;21.40;;;8.30;99.90;;;;;;4985737;28;20349;-77
2022/03/02 11:16:35;;;;;;;31.90;19.95;;;8.20;99.90;;;;;;4997594;28;20086;-79
2022/03/02 11:19:16;;;;;;;31.97;19.63;;;8.30;99.90;;;;;;5012452;28;20444;-79
2022/03/02 11:21:44;;;;;;;32.75;19.60;;;8.40;99.90;;;;;;5013047;28;20045;-79
2022/03/02 11:24:16;;;;;;;33.83;20.03;;;8.50;99.90;;;;;;5012963;28;20045;-79
2022/03/02 11:26:43;;;;;;;33.50;18.17;;;8.50;99.90;;;;;;5028551;28;20045;-79
2022/03/02 11:29:15;;;;;;;34.73;19.33;;;8.50;99.90;;;;;;5012732;28;20042;-79
2022/03/02 11:31:47;;;;;;;46.63;21.08;;;8.60;99.90;;;;;;5012895;28;20175;-78
2022/03/02 11:34:26;;;;;;;33.37;20.50;;;8.70;99.90;;;;;;5029626;28;20039;-79
2022/03/02 11:36:53;;;;;;;31.07;18.50;;;8.70;99.90;;;;;;5030336;28;20045;-88
2022/03/02 11:39:25;;;;;;;33.07;18.87;;;8.80;99.90;;;;;;5015593;28;20129;-90
2022/03/02 11:41:56;;;;;;;34.95;19.45;;;8.90;99.90;;;;;;5012071;28;20132;-88
2022/03/02 11:44:34;;;;;;;35.85;19.45;;;8.80;99.90;;;;;;5009735;28;20052;-88
2022/03/02 11:47:20;;;;;;;32.07;19.10;;;8.80;99.90;;;;;;5000422;28;20111;-89
2022/03/02 11:49:49;;;;;;;29.90;18.93;;;8.80;99.90;;;;;;5015207;28;20045;-89
2022/03/02 11:52:19;;;;;;;31.43;19.17;;;8.80;99.90;;;;;;5010737;28;20048;-89
2022/03/02 11:54:48;;;;;;;32.37;19.47;;;8.90;99.90;;;;;;5032543;28;20045;-89
2022/03/02 11:57:16;;;;;;;32.00;19.27;;;8.90;99.90;;;;;;5019303;28;20099;-89
2022/03/02 11:59:42;;;;;;;29.67;18.80;;;9.00;99.90;;;;;;5030983;28;20076;-90
2022/03/02 12:02:15;;;;;;;29.10;17.97;;;9.00;99.90;;;;;;5040341;28;20048;-90
2022/03/02 12:04:56;;;;;;;29.40;17.10;;;9.10;99.30;;;;;;5022593;28;20048;-91
2022/03/02 12:07:22;;;;;;;29.53;17.67;;;9.10;95.50;;;;;;4997165;28;20049;-89
2022/03/02 12:09:48;;;;;;;30.57;18.17;;;9.10;97.30;;;;;;4980659;28;20050;-90
2022/03/02 12:12:16;;;;;;;33.40;17.87;;;9.20;97.10;;;;;;4999350;28;20052;-88
2022/03/02 12:14:45;;;;;;;32.10;18.67;;;9.30;95.90;;;;;;5016194;28;20037;-88
2022/03/02 12:17:30;;;;;;;29.53;17.97;;;9.40;95.60;;;;;;5015070;28;20034;-91
2022/03/02 12:20:11;;;;;;;26.30;16.17;;;9.40;94.40;;;;;;5015710;28;20049;-90
2022/03/02 12:22:40;;;;;;;30.00;17.10;;;9.40;91.30;;;;;;4999615;28;20367;-90
2022/03/02 12:25:09;;;;;;;27.93;17.27;;;9.50;92.30;;;;;;5016769;28;20025;-90
2022/03/02 12:27:34;;;;;;;29.27;16.47;;;9.40;92.10;;;;;;4999510;28;20069;-91
2022/03/02 12:30:20;;;;;;;29.47;17.97;;;9.50;91.60;;;;;;5015669;28;20076;-91
2022/03/02 12:32:46;;;;;;;29.43;17.87;;;9.50;91.80;;;;;;5015068;28;20049;-91
2022/03/02 12:35:13;;;;;;;30.73;17.80;;;9.50;90.70;;;;;;5015089;28;20095;-91
2022/03/02 12:37:40;;;;;;;29.37;17.40;;;9.50;91.20;;;;;;4999801;28;20052;-90
2022/03/02 12:40:09;;;;;;;30.63;17.63;;;9.60;91.50;;;;;;5029567;28;20041;-89
2022/03/02 12:42:38;;;;;;;28.43;17.17;;;9.70;90.90;;;;;;5014225;28;20045;-89